createdAt,value
2024-04-25T00:00:31.088Z,1.51
2024-04-25T00:02:02.580Z,1.84
2024-04-25T00:03:34.097Z,2.09
2024-04-25T00:05:05.792Z,1.91
2024-04-25T00:06:37.382Z,1.41
2024-04-25T00:08:08.942Z,1.43
2024-04-25T00:09:40.511Z,1.55
2024-04-25T00:11:12.099Z,1.13
2024-04-25T00:12:43.580Z,1.36
2024-04-25T00:14:15.874Z,2.07
2024-04-25T00:15:47.393Z,1.18
2024-04-25T00:17:19.061Z,1.92
2024-04-25T00:18:50.876Z,1.55
2024-04-25T00:20:22.519Z,1.22
2024-04-25T00:21:54.109Z,1.41
2024-04-25T00:23:25.608Z,1.87
2024-04-25T00:24:57.132Z,1.69
2024-04-25T00:26:28.629Z,1.99
2024-04-25T00:28:01.362Z,1.10
2024-04-25T00:29:32.964Z,1.23
2024-04-25T00:31:04.690Z,1.79
2024-04-25T00:32:36.311Z,1.86
2024-04-25T00:34:08.065Z,1.07
2024-04-25T00:35:39.618Z,1.71
2024-04-25T00:37:11.070Z,1.02
2024-04-25T00:38:42.632Z,1.21
2024-04-25T00:40:14.162Z,1.64
2024-04-25T00:41:45.676Z,0.84
2024-04-25T00:43:18.990Z,1.28
2024-04-25T00:44:51.273Z,1.55
2024-04-25T00:46:22.890Z,1.70
2024-04-25T00:47:54.753Z,1.58
2024-04-25T00:49:26.675Z,1.82
2024-04-25T00:51:00.387Z,1.47
2024-04-25T00:52:33.088Z,1.23
2024-04-25T00:54:05.039Z,1.72
2024-04-25T00:55:36.660Z,1.31
2024-04-25T00:57:11.227Z,1.59
2024-04-25T00:58:47.076Z,1.10
2024-04-25T01:00:20.416Z,1.09
2024-04-25T01:01:52.362Z,1.63
2024-04-25T01:03:24.911Z,0.77
2024-04-25T01:04:59.739Z,1.39
2024-04-25T01:06:33.769Z,1.60
2024-04-25T01:08:05.773Z,1.29
2024-04-25T01:09:37.236Z,1.02
2024-04-25T01:11:08.801Z,1.13
2024-04-25T01:12:40.777Z,1.22
2024-04-25T01:14:12.291Z,1.49
2024-04-25T01:15:44.242Z,0.96
2024-04-25T01:17:15.778Z,1.46
2024-04-25T01:18:47.305Z,1.12
2024-04-25T01:20:21.814Z,0.88
2024-04-25T01:21:53.426Z,0.71
2024-04-25T01:23:30.199Z,1.36
2024-04-25T01:25:02.968Z,1.10
2024-04-25T01:26:34.823Z,1.70
2024-04-25T01:28:06.930Z,0.86
2024-04-25T01:29:39.390Z,0.92
2024-04-25T01:31:11.255Z,0.71
2024-04-25T01:32:43.283Z,0.86
2024-04-25T01:34:15.487Z,1.68
2024-04-25T01:35:49.888Z,1.65
2024-04-25T01:37:21.401Z,1.76
2024-04-25T01:38:52.896Z,1.89
2024-04-25T01:40:24.377Z,0.91
2024-04-25T01:41:55.901Z,1.62
2024-04-25T01:43:27.414Z,1.62
2024-04-25T01:44:58.903Z,1.89
2024-04-25T01:46:30.431Z,0.84
2024-04-25T01:48:02.247Z,1.31
2024-04-25T01:49:33.767Z,1.94
2024-04-25T01:51:08.548Z,1.73
2024-04-25T01:52:40.050Z,0.71
2024-04-25T01:54:11.519Z,1.14
2024-04-25T01:55:43.080Z,1.73
2024-04-25T01:57:14.610Z,1.65
2024-04-25T01:58:46.088Z,1.97
2024-04-25T02:00:17.851Z,1.85
2024-04-25T02:01:49.322Z,1.02
2024-04-25T02:03:20.936Z,1.44
2024-04-25T02:04:52.507Z,1.21
2024-04-25T02:06:24.013Z,1.76
2024-04-25T02:07:56.025Z,1.71
2024-04-25T02:09:27.514Z,1.29
2024-04-25T02:10:59.006Z,1.61
2024-04-25T02:12:30.612Z,0.70
2024-04-25T02:14:02.079Z,1.13
2024-04-25T02:15:33.597Z,1.27
2024-04-25T02:17:05.134Z,1.21
2024-04-25T02:18:36.823Z,1.25
2024-04-25T02:20:27.847Z,0.87
2024-04-25T02:22:18.141Z,1.39
2024-04-25T02:24:08.174Z,0.82
2024-04-25T02:25:39.644Z,1.14
2024-04-25T02:27:11.172Z,1.79
2024-04-25T02:28:42.669Z,1.22
2024-04-25T02:30:14.316Z,1.30
2024-04-25T02:31:45.802Z,0.99
2024-04-25T02:33:17.355Z,1.11
2024-04-25T02:34:48.984Z,1.53
2024-04-25T02:36:20.457Z,1.54
2024-04-25T02:37:52.182Z,1.43
2024-04-25T02:39:23.649Z,1.65
2024-04-25T02:40:55.261Z,1.00
2024-04-25T02:42:26.718Z,1.02
2024-04-25T02:43:58.176Z,1.26
2024-04-25T02:45:29.668Z,0.97
2024-04-25T02:47:01.166Z,1.03
2024-04-25T02:48:32.689Z,1.56
2024-04-25T02:50:04.511Z,1.24
2024-04-25T02:51:36.035Z,1.28
2024-04-25T02:53:07.539Z,0.60
2024-04-25T02:54:39.048Z,0.73
2024-04-25T02:56:10.548Z,0.81
2024-04-25T02:57:42.062Z,1.13
2024-04-25T02:59:13.592Z,1.32
2024-04-25T03:00:45.108Z,1.22
2024-04-25T03:02:16.842Z,1.54
2024-04-25T03:03:48.471Z,1.13
2024-04-25T03:05:20.252Z,1.11
2024-04-25T03:06:51.801Z,1.17
2024-04-25T03:08:23.312Z,1.02
2024-04-25T03:09:54.845Z,1.68
2024-04-25T03:11:26.369Z,1.68
2024-04-25T03:12:57.826Z,1.22
2024-04-25T03:14:29.441Z,1.33
2024-04-25T03:16:05.289Z,1.21
2024-04-25T03:17:36.843Z,0.62
2024-04-25T03:19:08.512Z,1.60
2024-04-25T03:20:40.070Z,1.20
2024-04-25T03:22:11.684Z,1.09
2024-04-25T03:23:43.237Z,0.70
2024-04-25T03:25:14.743Z,1.43
2024-04-25T03:26:46.340Z,1.21
2024-04-25T03:28:17.797Z,0.88
2024-04-25T03:29:49.243Z,1.26
2024-04-25T03:31:21.759Z,0.75
2024-04-25T03:32:53.427Z,1.20
2024-04-25T03:34:25.333Z,1.40
2024-04-25T03:35:56.919Z,1.72
2024-04-25T03:37:28.509Z,0.83
2024-04-25T03:38:59.941Z,1.58
2024-04-25T03:40:31.423Z,1.29
2024-04-25T03:42:03.160Z,1.09
2024-04-25T03:43:34.631Z,1.89
2024-04-25T03:45:06.510Z,1.48
2024-04-25T03:46:38.177Z,0.60
2024-04-25T03:48:09.960Z,1.88
2024-04-25T03:49:41.648Z,1.35
2024-04-25T03:51:13.181Z,1.39
2024-04-25T03:52:44.690Z,0.92
2024-04-25T03:54:16.206Z,1.88
2024-04-25T03:55:47.678Z,0.48
2024-04-25T03:57:19.297Z,1.84
2024-04-25T03:58:50.815Z,1.50
2024-04-25T04:00:22.282Z,1.83
2024-04-25T04:01:53.781Z,1.90
2024-04-25T04:03:25.390Z,1.38
2024-04-25T04:04:56.950Z,1.57
2024-04-25T04:06:28.395Z,1.66
2024-04-25T04:07:59.919Z,1.51
2024-04-25T04:09:31.449Z,1.14
2024-04-25T04:11:03.149Z,1.50
2024-04-25T04:12:34.681Z,1.54
2024-04-25T04:14:06.297Z,1.79
2024-04-25T04:15:38.295Z,1.60
2024-04-25T04:17:09.868Z,1.65
2024-04-25T04:18:42.562Z,1.23
2024-04-25T04:20:14.150Z,1.42
2024-04-25T04:21:45.626Z,1.55
2024-04-25T04:23:17.170Z,1.48
2024-04-25T04:24:48.772Z,1.38
2024-04-25T04:26:20.264Z,1.48
2024-04-25T04:27:51.833Z,1.98
2024-04-25T04:29:24.342Z,1.49
2024-04-25T04:30:55.824Z,1.90
2024-04-25T04:32:27.379Z,1.22
2024-04-25T04:33:59.210Z,1.36
2024-04-25T04:35:30.827Z,1.62
2024-04-25T04:37:02.287Z,1.93
2024-04-25T04:38:34.947Z,1.93
2024-04-25T04:40:07.730Z,1.81
2024-04-25T04:41:39.616Z,1.77
2024-04-25T04:43:11.130Z,1.43
2024-04-25T04:44:42.688Z,1.96
2024-04-25T04:46:14.158Z,2.06
2024-04-25T04:47:45.822Z,2.09
2024-04-25T04:49:17.681Z,1.43
2024-04-25T04:50:49.204Z,1.71
2024-04-25T04:52:21.356Z,1.51
2024-04-25T04:53:52.969Z,1.54
2024-04-25T04:55:24.450Z,1.55
2024-04-25T04:56:55.940Z,1.53
2024-04-25T04:58:27.507Z,1.97
2024-04-25T04:59:59.048Z,1.36
2024-04-25T05:01:30.508Z,1.24
2024-04-25T05:03:02.726Z,0.62
2024-04-25T05:04:34.304Z,1.59
2024-04-25T05:06:09.056Z,1.23
2024-04-25T05:07:41.944Z,1.33
2024-04-25T05:09:13.427Z,1.12
2024-04-25T05:10:44.934Z,1.69
2024-04-25T05:12:19.664Z,1.06
2024-04-25T05:13:51.354Z,1.95
2024-04-25T05:15:23.070Z,1.90
2024-04-25T05:16:54.537Z,1.43
2024-04-25T05:18:26.344Z,1.47
2024-04-25T05:19:57.873Z,1.48
2024-04-25T05:21:32.174Z,1.98
2024-04-25T05:23:03.752Z,1.60
2024-04-25T05:24:35.232Z,1.79
2024-04-25T05:26:07.781Z,2.00
2024-04-25T05:27:39.319Z,1.85
2024-04-25T05:29:11.138Z,1.97
2024-04-25T05:30:42.994Z,1.76
2024-04-25T05:32:14.456Z,1.31
2024-04-25T05:33:53.077Z,2.13
2024-04-25T05:35:25.190Z,1.93
2024-04-25T05:36:56.768Z,1.86
2024-04-25T05:38:28.242Z,2.20
2024-04-25T05:39:59.820Z,2.31
2024-04-25T05:41:31.351Z,2.33
2024-04-25T05:43:02.923Z,1.97
2024-04-25T05:44:34.406Z,2.63
2024-04-25T05:46:07.288Z,2.23
2024-04-25T05:47:39.535Z,1.66
2024-04-25T05:49:11.167Z,2.06
2024-04-25T05:50:42.734Z,2.50
2024-04-25T05:52:17.711Z,2.53
2024-04-25T05:53:52.307Z,2.11
2024-04-25T05:55:23.808Z,2.33
2024-04-25T05:56:55.260Z,2.35
2024-04-25T05:58:26.710Z,1.66
2024-04-25T05:59:58.195Z,2.15
2024-04-25T06:01:29.655Z,1.31
2024-04-25T06:03:04.374Z,2.19
2024-04-25T06:04:36.873Z,1.98
2024-04-25T06:06:08.416Z,2.06
2024-04-25T06:07:39.883Z,2.64
2024-04-25T06:09:11.337Z,2.43
2024-04-25T06:10:43.766Z,2.77
2024-04-25T06:12:15.550Z,2.48
2024-04-25T06:13:47.109Z,2.69
2024-04-25T06:15:18.586Z,2.45
2024-04-25T06:16:50.350Z,2.49
2024-04-25T06:18:21.952Z,2.33
2024-04-25T06:19:53.479Z,2.75
2024-04-25T06:21:24.970Z,3.08
2024-04-25T06:22:56.450Z,2.67
2024-04-25T06:24:28.001Z,2.28
2024-04-25T06:25:59.443Z,2.86
2024-04-25T06:27:31.808Z,2.84
2024-04-25T06:29:03.532Z,2.55
2024-04-25T06:30:35.321Z,2.60
2024-04-25T06:32:06.870Z,2.28
2024-04-25T06:33:38.437Z,2.42
2024-04-25T06:35:10.192Z,2.41
2024-04-25T06:36:41.905Z,2.72
2024-04-25T06:38:15.966Z,3.03
2024-04-25T06:39:47.634Z,2.22
2024-04-25T06:41:19.130Z,2.83
2024-04-25T06:42:50.619Z,2.24
2024-04-25T06:44:29.321Z,2.12
2024-04-25T06:46:08.660Z,2.03
2024-04-25T06:47:40.341Z,2.12
2024-04-25T06:49:12.649Z,2.77
2024-04-25T06:50:44.375Z,2.38
2024-04-25T06:52:15.922Z,2.35
2024-04-25T06:53:47.400Z,2.71
2024-04-25T06:55:20.833Z,2.62
2024-04-25T06:56:52.289Z,2.22
2024-04-25T06:58:23.951Z,2.88
2024-04-25T06:59:57.591Z,2.79
2024-04-25T07:01:29.115Z,2.33
2024-04-25T07:03:00.624Z,2.71
2024-04-25T07:04:32.187Z,2.91
2024-04-25T07:06:03.810Z,3.06
2024-04-25T07:07:35.442Z,2.71
2024-04-25T07:09:08.721Z,2.67
2024-04-25T07:10:40.373Z,2.85
2024-04-25T07:12:11.911Z,3.15
2024-04-25T07:13:45.178Z,3.06
2024-04-25T07:15:16.885Z,2.53
2024-04-25T07:16:48.780Z,2.91
2024-04-25T07:18:20.342Z,2.83
2024-04-25T07:19:51.844Z,3.16
2024-04-25T07:21:28.590Z,3.19
2024-04-25T07:23:00.095Z,3.18
2024-04-25T07:24:31.820Z,3.06
2024-04-25T07:26:03.406Z,3.63
2024-04-25T07:27:35.477Z,3.70
2024-04-25T07:29:07.031Z,2.80
2024-04-25T07:30:38.471Z,3.01
2024-04-25T07:32:10.155Z,2.93
2024-04-25T07:33:41.919Z,2.80
2024-04-25T07:35:15.551Z,2.86
2024-04-25T07:36:47.879Z,2.60
2024-04-25T07:38:19.339Z,3.43
2024-04-25T07:39:51.174Z,2.90
2024-04-25T07:41:22.798Z,3.17
2024-04-25T07:42:54.295Z,2.77
2024-04-25T07:44:25.974Z,2.99
2024-04-25T07:45:58.371Z,3.55
2024-04-25T07:47:30.723Z,3.37
2024-04-25T07:49:04.055Z,2.81
2024-04-25T07:50:35.727Z,3.84
2024-04-25T07:52:10.244Z,2.49
2024-04-25T07:53:41.856Z,3.81
2024-04-25T07:55:13.451Z,3.38
2024-04-25T07:56:45.045Z,3.47
2024-04-25T07:58:16.666Z,3.23
2024-04-25T07:59:48.162Z,3.27
2024-04-25T08:01:19.644Z,3.41
2024-04-25T08:02:52.029Z,3.45
2024-04-25T08:04:26.913Z,3.44
2024-04-25T08:05:58.485Z,3.04
2024-04-25T08:07:30.006Z,3.23
2024-04-25T08:09:01.490Z,3.34
2024-04-25T08:10:33.789Z,3.55
2024-04-25T08:12:05.834Z,3.94
2024-04-25T08:13:37.467Z,4.18
2024-04-25T08:15:08.963Z,4.35
2024-04-25T08:16:40.525Z,4.89
2024-04-25T08:18:12.135Z,4.49
2024-04-25T08:19:43.736Z,5.12
2024-04-25T08:21:16.120Z,5.05
2024-04-25T08:22:48.986Z,4.96
2024-04-25T08:24:20.902Z,5.42
2024-04-25T08:25:52.557Z,4.64
2024-04-25T08:27:24.060Z,4.48
2024-04-25T08:28:55.541Z,4.90
2024-04-25T08:30:27.011Z,4.54
2024-04-25T08:31:58.530Z,4.20
2024-04-25T08:33:30.281Z,4.60
2024-04-25T08:35:01.986Z,4.92
2024-04-25T08:36:33.481Z,4.30
2024-04-25T08:38:06.567Z,5.13
2024-04-25T08:39:38.099Z,5.45
2024-04-25T08:41:09.900Z,5.05
2024-04-25T08:42:44.154Z,5.10
2024-04-25T08:44:18.969Z,3.95
2024-04-25T08:45:51.325Z,4.29
2024-04-25T08:47:24.173Z,5.04
2024-04-25T08:48:59.985Z,5.56
2024-04-25T08:50:34.325Z,4.93
2024-04-25T08:52:07.030Z,5.36
2024-04-25T08:53:41.292Z,5.86
2024-04-25T08:55:13.938Z,5.23
2024-04-25T08:56:45.681Z,6.08
2024-04-25T08:58:17.736Z,4.71
2024-04-25T08:59:49.298Z,6.10
2024-04-25T09:01:22.342Z,6.21
2024-04-25T09:02:55.548Z,5.63
2024-04-25T09:04:28.796Z,5.38
2024-04-25T09:06:00.355Z,4.97
2024-04-25T09:07:31.980Z,4.60
2024-04-25T09:09:03.867Z,4.68
2024-04-25T09:10:42.572Z,5.87
2024-04-25T09:12:14.241Z,5.44
2024-04-25T09:13:56.031Z,6.79
2024-04-25T09:15:28.497Z,7.11
2024-04-25T09:17:00.169Z,6.47
2024-04-25T09:18:32.668Z,6.61
2024-04-25T09:20:04.467Z,5.66
2024-04-25T09:21:37.299Z,5.50
2024-04-25T09:23:08.927Z,5.93
2024-04-25T09:24:40.415Z,5.07
2024-04-25T09:26:13.693Z,5.65
2024-04-25T09:27:45.703Z,4.76
2024-04-25T09:29:18.663Z,5.27
2024-04-25T09:30:50.706Z,5.23
2024-04-25T09:32:22.319Z,5.25
2024-04-25T09:33:59.802Z,4.88
2024-04-25T09:35:38.315Z,4.37
2024-04-25T09:37:10.873Z,3.58
2024-04-25T09:38:42.516Z,4.29
2024-04-25T09:40:14.144Z,4.03
2024-04-25T09:41:46.736Z,4.50
2024-04-25T09:43:19.552Z,3.95
2024-04-25T09:44:52.148Z,4.40
2024-04-25T09:46:30.117Z,4.25
2024-04-25T09:48:06.616Z,5.03
2024-04-25T09:49:52.421Z,4.92
2024-04-25T09:51:34.599Z,4.92
2024-04-25T09:53:18.681Z,5.14
2024-04-25T09:54:53.592Z,5.25
2024-04-25T09:56:29.555Z,5.23
2024-04-25T09:58:08.039Z,5.12
2024-04-25T09:59:51.810Z,4.92
2024-04-25T10:01:24.226Z,4.58
2024-04-25T10:02:57.004Z,5.53
2024-04-25T10:04:34.500Z,5.27
2024-04-25T10:06:07.748Z,5.81
2024-04-25T10:07:41.189Z,5.18
2024-04-25T10:09:13.352Z,5.65
2024-04-25T10:10:45.251Z,5.20
2024-04-25T10:12:24.708Z,5.95
2024-04-25T10:13:56.471Z,5.32
2024-04-25T10:15:29.419Z,6.34
2024-04-25T10:17:04.049Z,6.42
2024-04-25T10:18:35.904Z,5.97
2024-04-25T10:20:18.748Z,6.06
2024-04-25T10:21:50.529Z,5.94
2024-04-25T10:23:31.863Z,5.69
2024-04-25T10:25:06.127Z,5.13
2024-04-25T10:26:37.686Z,6.31
2024-04-25T10:28:12.571Z,6.78
2024-04-25T10:29:53.730Z,6.72
2024-04-25T10:31:38.719Z,6.12
2024-04-25T10:33:10.587Z,5.87
2024-04-25T10:34:42.172Z,6.46
2024-04-25T10:36:14.172Z,6.50
2024-04-25T10:37:48.779Z,6.82
2024-04-25T10:39:21.092Z,6.34
2024-04-25T10:40:52.697Z,5.84
2024-04-25T10:42:24.167Z,6.02
2024-04-25T10:43:55.608Z,5.86
2024-04-25T10:45:28.902Z,5.95
2024-04-25T10:47:00.520Z,6.37
2024-04-25T10:48:32.140Z,6.58
2024-04-25T10:50:04.224Z,6.62
2024-04-25T10:51:38.477Z,7.10
2024-04-25T10:53:10.059Z,6.40
2024-04-25T10:54:41.889Z,6.28
2024-04-25T10:56:14.295Z,6.72
2024-04-25T10:57:45.795Z,6.51
2024-04-25T10:59:17.478Z,7.07
2024-04-25T11:00:49.159Z,7.23
2024-04-25T11:02:23.284Z,6.03
2024-04-25T11:03:59.691Z,6.74
2024-04-25T11:05:31.422Z,6.51
2024-04-25T11:07:06.501Z,6.70
2024-04-25T11:08:38.509Z,6.40
2024-04-25T11:10:10.541Z,6.92
2024-04-25T11:11:42.250Z,6.37
2024-04-25T11:13:15.059Z,7.07
2024-04-25T11:14:46.582Z,6.54
2024-04-25T11:16:18.396Z,6.46
2024-04-25T11:18:00.707Z,5.44
2024-04-25T11:19:46.895Z,6.48
2024-04-25T11:21:22.723Z,5.05
2024-04-25T11:22:54.668Z,6.10
2024-04-25T11:24:26.878Z,4.83
2024-04-25T11:26:02.321Z,5.57
2024-04-25T11:27:33.819Z,5.30
2024-04-25T11:29:06.221Z,5.33
2024-04-25T11:30:38.419Z,5.17
2024-04-25T11:32:10.222Z,4.79
2024-04-25T11:33:42.027Z,4.98
2024-04-25T11:35:16.934Z,4.51
2024-04-25T11:37:05.072Z,5.70
2024-04-25T11:38:36.608Z,4.98
2024-04-25T11:40:08.467Z,5.60
2024-04-25T11:41:41.591Z,5.40
2024-04-25T11:43:17.143Z,5.52
2024-04-25T11:44:49.112Z,5.81
2024-04-25T11:46:20.702Z,6.21
2024-04-25T11:47:52.682Z,6.28
2024-04-25T11:49:24.330Z,6.11
2024-04-25T11:50:56.012Z,6.02
2024-04-25T11:52:27.580Z,6.18
2024-04-25T11:53:59.749Z,6.73
2024-04-25T11:55:31.200Z,5.72
2024-04-25T11:57:02.878Z,6.38
2024-04-25T11:58:34.368Z,6.19
2024-04-25T12:00:06.604Z,5.57
2024-04-25T12:01:38.117Z,5.56
2024-04-25T12:03:09.755Z,6.19
2024-04-25T12:04:41.288Z,6.02
2024-04-25T12:06:13.694Z,6.52
2024-04-25T12:07:45.975Z,5.86
2024-04-25T12:09:17.801Z,5.93
2024-04-25T12:10:51.647Z,6.35
2024-04-25T12:12:23.266Z,6.58
2024-04-25T12:13:54.767Z,6.06
2024-04-25T12:15:26.317Z,6.13
2024-04-25T12:16:57.806Z,6.68
2024-04-25T12:18:32.054Z,6.53
2024-04-25T12:20:05.237Z,7.07
2024-04-25T12:21:36.746Z,7.06
2024-04-25T12:23:09.099Z,6.56
2024-04-25T12:24:40.591Z,7.86
2024-04-25T12:26:12.137Z,7.44
2024-04-25T12:27:43.567Z,7.39
2024-04-25T12:29:15.730Z,7.13
2024-04-25T12:30:49.932Z,7.18
2024-04-25T12:32:21.430Z,7.11
2024-04-25T12:33:54.708Z,7.54
2024-04-25T12:35:26.296Z,6.95
2024-04-25T12:36:57.802Z,7.16
2024-04-25T12:38:29.314Z,6.49
2024-04-25T12:40:00.802Z,6.49
2024-04-25T12:41:32.322Z,6.23
2024-04-25T12:43:05.903Z,6.22
2024-04-25T12:44:37.425Z,5.87
2024-04-25T12:46:08.968Z,6.46
2024-04-25T12:47:40.610Z,6.15
2024-04-25T12:49:31.524Z,6.06
2024-04-25T12:51:03.377Z,6.36
2024-04-25T12:52:34.913Z,5.67
2024-04-25T12:54:06.358Z,4.67
2024-04-25T12:55:39.492Z,5.78
2024-04-25T12:57:21.892Z,5.55
2024-04-25T12:58:55.448Z,5.50
2024-04-25T13:00:26.996Z,5.51
2024-04-25T13:01:58.816Z,5.78
2024-04-25T13:03:31.044Z,5.97
2024-04-25T13:05:02.518Z,5.24
2024-04-25T13:06:33.985Z,5.99
2024-04-25T13:08:06.792Z,5.07
2024-04-25T13:09:41.351Z,5.80
2024-04-25T13:11:16.051Z,5.21
2024-04-25T13:12:47.639Z,5.18
2024-04-25T13:14:19.231Z,5.67
2024-04-25T13:15:50.740Z,6.35
2024-04-25T13:17:23.279Z,5.92
2024-04-25T13:18:55.069Z,6.55
2024-04-25T13:20:26.742Z,6.46
2024-04-25T13:21:58.298Z,6.13
2024-04-25T13:23:29.762Z,6.70
2024-04-25T13:25:01.436Z,7.03
2024-04-25T13:26:34.689Z,7.52
2024-04-25T13:28:06.518Z,8.13
2024-04-25T13:29:38.203Z,7.92
2024-04-25T13:31:10.346Z,7.22
2024-04-25T13:32:43.376Z,7.90
2024-04-25T13:34:17.315Z,8.15
2024-04-25T13:35:49.002Z,8.08
2024-04-25T13:37:20.756Z,7.87
2024-04-25T13:38:53.028Z,7.77
2024-04-25T13:40:24.544Z,7.98
2024-04-25T13:41:56.023Z,8.28
2024-04-25T13:43:28.225Z,7.91
2024-04-25T13:45:01.925Z,7.29
2024-04-25T13:46:35.180Z,7.14
2024-04-25T13:48:07.395Z,7.14
2024-04-25T13:49:38.926Z,6.93
2024-04-25T13:51:10.385Z,6.42
2024-04-25T13:52:41.923Z,5.91
2024-04-25T13:54:13.421Z,6.73
2024-04-25T13:55:44.927Z,7.06
2024-04-25T13:57:16.485Z,6.24
2024-04-25T13:58:48.077Z,7.07
2024-04-25T14:00:19.900Z,6.98
2024-04-25T14:01:51.428Z,6.87
2024-04-25T14:03:22.924Z,6.96
2024-04-25T14:04:54.392Z,5.80
2024-04-25T14:06:26.128Z,5.75
2024-04-25T14:07:57.655Z,5.99
2024-04-25T14:09:29.127Z,6.73
2024-04-25T14:11:00.939Z,6.78
2024-04-25T14:12:32.609Z,6.49
2024-04-25T14:14:05.859Z,6.78
2024-04-25T14:15:37.343Z,6.87
2024-04-25T14:17:08.930Z,6.13
2024-04-25T14:18:40.552Z,6.47
2024-04-25T14:20:12.243Z,6.41
2024-04-25T14:21:43.762Z,6.82
2024-04-25T14:23:15.292Z,6.82
2024-04-25T14:24:53.522Z,6.92
2024-04-25T14:26:43.562Z,7.01
2024-04-25T14:28:33.973Z,7.18
2024-04-25T14:30:06.188Z,7.36
2024-04-25T14:31:37.699Z,8.41
2024-04-25T14:34:42.443Z,7.55
2024-04-25T14:36:14.566Z,7.01
2024-04-25T14:37:46.130Z,7.36
2024-04-25T14:39:17.713Z,7.06
2024-04-25T14:40:49.475Z,6.65
2024-04-25T14:42:21.004Z,6.07
2024-04-25T14:43:58.254Z,6.59
2024-04-25T14:45:30.468Z,7.02
2024-04-25T14:47:01.977Z,6.75
2024-04-25T14:48:33.653Z,7.69
2024-04-25T14:50:08.265Z,6.99
2024-04-25T14:51:39.754Z,6.58
2024-04-25T14:53:11.209Z,7.37
2024-04-25T14:54:42.674Z,7.48
2024-04-25T14:56:14.437Z,7.74
2024-04-25T14:57:46.047Z,8.43
2024-04-25T14:59:17.527Z,8.33
2024-04-25T15:00:49.181Z,8.49
2024-04-25T15:02:21.392Z,8.17
2024-04-25T15:03:52.929Z,8.55
2024-04-25T15:05:24.474Z,8.35
2024-04-25T15:06:55.978Z,9.47
2024-04-25T15:08:27.525Z,8.61
2024-04-25T15:09:59.081Z,9.83
2024-04-25T15:11:30.596Z,8.70
2024-04-25T15:13:02.793Z,7.88
2024-04-25T15:14:35.415Z,8.22
2024-04-25T15:16:07.343Z,7.75
2024-04-25T15:17:40.355Z,8.17
2024-04-25T15:19:14.196Z,7.91
2024-04-25T15:20:45.779Z,7.84
2024-04-25T15:22:17.245Z,8.16
2024-04-25T15:23:49.079Z,8.15
2024-04-25T15:25:20.629Z,8.63
2024-04-25T15:26:52.165Z,7.32
2024-04-25T15:28:23.912Z,8.73
2024-04-25T15:29:55.525Z,8.85
2024-04-25T15:31:27.237Z,8.25
2024-04-25T15:32:58.900Z,9.69
2024-04-25T15:34:30.598Z,8.87
2024-04-25T15:36:02.207Z,8.50
2024-04-25T15:37:34.027Z,9.13
2024-04-25T15:39:05.477Z,10.09
2024-04-25T15:40:37.022Z,9.50
2024-04-25T15:42:08.553Z,9.22
2024-04-25T15:43:40.178Z,8.34
2024-04-25T15:45:11.767Z,7.88
2024-04-25T15:46:43.301Z,8.08
2024-04-25T15:48:14.876Z,8.67
2024-04-25T15:49:46.493Z,8.43
2024-04-25T15:51:18.298Z,8.46
2024-04-25T15:52:49.830Z,8.06
2024-04-25T15:54:21.562Z,7.86
2024-04-25T15:55:55.836Z,8.48
2024-04-25T15:57:27.684Z,8.41
2024-04-25T15:58:59.705Z,9.22
2024-04-25T16:00:31.220Z,9.39
2024-04-25T16:02:02.715Z,8.58
2024-04-25T16:03:36.648Z,8.96
2024-04-25T16:05:08.252Z,8.28
2024-04-25T16:06:39.711Z,8.49
2024-04-25T16:08:12.424Z,7.62
2024-04-25T16:09:46.338Z,8.45
2024-04-25T16:11:17.947Z,9.30
2024-04-25T16:12:49.558Z,9.19
2024-04-25T16:14:21.108Z,9.48
2024-04-25T16:15:52.812Z,9.15
2024-04-25T16:17:24.452Z,9.81
2024-04-25T16:18:55.962Z,9.67
2024-04-25T16:20:27.677Z,8.71
2024-04-25T16:22:01.004Z,8.46
2024-04-25T16:23:34.702Z,8.22
2024-04-25T16:25:06.423Z,7.76
2024-04-25T16:26:40.779Z,7.78
2024-04-25T16:28:12.316Z,8.03
2024-04-25T16:29:43.857Z,8.10
2024-04-25T16:31:15.417Z,8.20
2024-04-25T16:32:47.020Z,8.85
2024-04-25T16:34:18.596Z,8.21
2024-04-25T16:35:51.861Z,8.03
2024-04-25T16:37:23.577Z,7.74
2024-04-25T16:38:58.690Z,7.25
2024-04-25T16:40:32.800Z,6.77
2024-04-25T16:42:04.577Z,7.33
2024-04-25T16:43:37.421Z,7.32
2024-04-25T16:45:08.886Z,7.27
2024-04-25T16:46:41.366Z,7.18
2024-04-25T16:48:13.065Z,7.32
2024-04-25T16:49:44.531Z,7.46
2024-04-25T16:51:20.139Z,7.68
2024-04-25T16:52:51.674Z,7.12
2024-04-25T16:54:26.422Z,7.41
2024-04-25T16:55:58.202Z,7.63
2024-04-25T16:57:29.755Z,7.50
2024-04-25T16:59:01.773Z,7.50
2024-04-25T17:00:35.735Z,6.91
2024-04-25T17:02:08.021Z,6.48
2024-04-25T17:03:47.159Z,7.61
2024-04-25T17:05:20.116Z,7.53
2024-04-25T17:06:55.814Z,5.99
2024-04-25T17:08:28.957Z,6.20
2024-04-25T17:10:02.405Z,7.10
2024-04-25T17:11:35.021Z,6.47
2024-04-25T17:13:06.889Z,7.36
2024-04-25T17:14:38.818Z,6.34
2024-04-25T17:16:10.789Z,7.41
2024-04-25T17:17:45.746Z,5.91
2024-04-25T17:19:22.545Z,7.11
2024-04-25T17:20:54.437Z,7.02
2024-04-25T17:22:29.312Z,5.48
2024-04-25T17:24:03.133Z,7.20
2024-04-25T17:25:35.208Z,7.08
2024-04-25T17:27:07.740Z,5.40
2024-04-25T17:28:39.572Z,5.22
2024-04-25T17:30:11.491Z,6.67
2024-04-25T17:31:46.999Z,6.68
2024-04-25T17:33:21.884Z,6.99
2024-04-25T17:34:54.099Z,5.95
2024-04-25T17:36:25.943Z,6.41
2024-04-25T17:37:57.899Z,6.90
2024-04-25T17:39:36.951Z,6.77
2024-04-25T17:41:08.954Z,5.82
2024-04-25T17:42:40.852Z,6.87
2024-04-25T17:44:15.352Z,7.04
2024-04-25T17:45:47.141Z,6.87
2024-04-25T17:47:20.357Z,5.98
2024-04-25T17:48:52.188Z,6.12
2024-04-25T17:50:24.013Z,6.80
2024-04-25T17:51:56.289Z,6.71
2024-04-25T17:53:34.750Z,6.15
2024-04-25T17:55:13.076Z,6.64
2024-04-25T17:56:46.228Z,5.76
2024-04-25T17:58:20.754Z,6.63
2024-04-25T17:59:52.762Z,6.45
2024-04-25T18:01:27.027Z,5.33
2024-04-25T18:03:00.659Z,5.23
2024-04-25T18:04:33.464Z,6.39
2024-04-25T18:06:07.582Z,5.63
2024-04-25T18:07:41.861Z,5.98
2024-04-25T18:09:16.893Z,5.45
2024-04-25T18:10:52.009Z,5.33
2024-04-25T18:12:23.798Z,4.72
2024-04-25T18:13:55.512Z,5.75
2024-04-25T18:15:30.408Z,5.68
2024-04-25T18:17:14.126Z,6.16
2024-04-25T18:18:47.126Z,4.98
2024-04-25T18:20:24.521Z,6.25
2024-04-25T18:22:06.374Z,5.10
2024-04-25T18:23:38.692Z,6.15
2024-04-25T18:25:14.920Z,6.02
2024-04-25T18:26:51.312Z,4.98
2024-04-25T18:28:41.008Z,4.80
2024-04-25T18:30:25.683Z,4.93
2024-04-25T18:31:57.791Z,5.02
2024-04-25T18:33:34.319Z,5.73
2024-04-25T18:35:12.644Z,4.03
2024-04-25T18:36:45.087Z,5.87
2024-04-25T18:38:19.631Z,5.90
2024-04-25T18:39:54.259Z,4.75
2024-04-25T18:42:09.615Z,5.58
2024-04-25T18:43:45.830Z,5.78
2024-04-25T18:45:22.309Z,5.77
2024-04-25T18:46:56.077Z,5.40
2024-04-25T18:50:19.800Z,5.24
2024-04-25T18:52:00.410Z,5.14
2024-04-25T18:53:38.110Z,4.74
2024-04-25T18:55:23.849Z,4.07
2024-04-25T18:56:56.310Z,4.69
2024-04-25T18:58:35.087Z,3.81
2024-04-25T19:00:20.883Z,5.48
2024-04-25T19:01:58.510Z,4.57
2024-04-25T19:05:28.960Z,4.48
2024-04-25T19:07:14.225Z,5.44
2024-04-25T19:10:53.833Z,4.80
2024-04-25T19:12:39.512Z,4.14
2024-04-25T19:14:34.814Z,4.67
2024-04-25T19:16:33.967Z,3.58
2024-04-25T19:18:26.056Z,4.00
2024-04-25T19:19:58.246Z,5.10
2024-04-25T19:22:20.842Z,4.96
2024-04-25T19:23:59.510Z,3.21
2024-04-25T19:25:47.115Z,4.92
2024-04-25T19:27:29.159Z,4.91
2024-04-25T19:29:16.963Z,3.75
2024-04-25T19:31:04.900Z,3.79
2024-04-25T19:34:42.825Z,3.82
2024-04-25T19:36:22.625Z,3.39
2024-04-25T19:38:05.570Z,3.70
2024-04-25T19:39:38.210Z,4.69
2024-04-25T19:41:30.950Z,4.67
2024-04-25T19:43:10.909Z,4.74
2024-04-25T19:44:48.982Z,2.80
2024-04-25T19:46:40.371Z,4.21
2024-04-25T19:48:13.454Z,4.58
2024-04-25T19:49:57.245Z,3.57
2024-04-25T19:51:58.692Z,4.59
2024-04-25T19:55:31.198Z,2.65
2024-04-25T19:57:13.109Z,2.59
2024-04-25T19:58:57.418Z,4.14
2024-04-25T20:02:37.506Z,2.93
2024-04-25T20:04:21.136Z,3.00
2024-04-25T20:05:57.016Z,4.20
2024-04-25T20:07:41.400Z,4.14
2024-04-25T20:09:25.524Z,3.61
2024-04-25T20:11:09.397Z,4.08
2024-04-25T20:12:52.292Z,3.52
2024-04-25T20:14:49.428Z,3.75
2024-04-25T20:16:25.653Z,4.29
2024-04-25T20:18:16.610Z,4.09
2024-04-25T20:20:09.623Z,3.38
2024-04-25T20:22:08.406Z,4.32
2024-04-25T20:23:42.932Z,4.42
2024-04-25T20:25:14.941Z,3.14
2024-04-25T20:27:04.622Z,2.40
2024-04-25T20:28:45.481Z,3.21
2024-04-25T20:30:27.094Z,4.22
2024-04-25T20:31:59.351Z,3.08
2024-04-25T20:33:31.837Z,3.48
2024-04-25T20:35:07.319Z,2.00
2024-04-25T20:36:43.821Z,4.17
2024-04-25T20:38:17.987Z,4.32
2024-04-25T20:39:53.950Z,3.79
2024-04-25T20:41:27.717Z,2.74
2024-04-25T20:43:05.815Z,3.58
2024-04-25T20:44:37.796Z,3.57
2024-04-25T20:46:13.044Z,3.95
2024-04-25T20:47:48.390Z,3.03
2024-04-25T20:49:20.553Z,2.81
2024-04-25T20:50:52.909Z,2.89
2024-04-25T20:52:24.802Z,4.19
2024-04-25T20:53:57.612Z,2.44
2024-04-25T20:55:29.555Z,4.19
2024-04-25T20:57:01.358Z,2.81
2024-04-25T20:58:33.337Z,2.33